createdAt,value
2023-01-23T00:00:16.039Z,5.40
2023-01-23T00:00:48.680Z,5.42
2023-01-23T00:01:25.414Z,5.42
2023-01-23T00:01:58.141Z,5.36
2023-01-23T00:02:30.953Z,5.36
2023-01-23T00:03:03.550Z,5.44
2023-01-23T00:03:36.222Z,5.38
2023-01-23T00:04:10.511Z,5.37
2023-01-23T00:04:43.179Z,5.39
2023-01-23T00:05:15.933Z,5.46
2023-01-23T00:06:01.083Z,5.44
2023-01-23T00:06:53.334Z,5.41
2023-01-23T00:07:26.395Z,5.38
2023-01-23T00:07:59.149Z,5.40
2023-01-23T00:08:31.792Z,5.35
2023-01-23T00:09:23.403Z,5.33
2023-01-23T00:09:57.887Z,5.37
2023-01-23T00:10:11.317Z,5.41
2023-01-23T00:10:44.849Z,5.42
2023-01-23T00:11:21.821Z,5.45
2023-01-23T00:11:54.340Z,5.50
2023-01-23T00:12:26.880Z,5.49
2023-01-23T00:12:59.633Z,5.41
2023-01-23T00:13:32.476Z,5.48
2023-01-23T00:14:05.311Z,5.50
2023-01-23T00:14:38.071Z,5.52
2023-01-23T00:15:14.688Z,5.43
2023-01-23T00:15:48.146Z,5.35
2023-01-23T00:16:22.120Z,5.36
2023-01-23T00:16:54.836Z,5.34
2023-01-23T00:17:27.620Z,5.27
2023-01-23T00:18:19.282Z,5.35
2023-01-23T00:18:52.110Z,5.53
2023-01-23T00:19:24.942Z,5.53
2023-01-23T00:20:15.879Z,5.50
2023-01-23T00:20:48.526Z,5.54
2023-01-23T00:21:22.695Z,5.52
2023-01-23T00:22:15.849Z,5.48
2023-01-23T00:22:48.385Z,5.47
2023-01-23T00:23:20.965Z,5.44
2023-01-23T00:23:54.666Z,5.41
2023-01-23T00:24:27.250Z,5.34
2023-01-23T00:25:18.383Z,5.35
2023-01-23T00:25:50.957Z,5.47
2023-01-23T00:26:24.367Z,5.53
2023-01-23T00:26:56.931Z,5.56
2023-01-23T00:27:29.474Z,5.50
2023-01-23T00:28:20.670Z,5.56
2023-01-23T00:28:53.851Z,5.53
2023-01-23T00:29:26.394Z,5.49
2023-01-23T00:29:59.031Z,5.42
2023-01-23T00:30:31.731Z,5.38
2023-01-23T00:31:07.804Z,5.34
2023-01-23T00:31:59.326Z,5.35
2023-01-23T00:32:50.220Z,5.33
2023-01-23T00:33:24.658Z,5.30
2023-01-23T00:34:16.004Z,5.31
2023-01-23T00:34:50.594Z,5.44
2023-01-23T00:35:42.324Z,5.45
2023-01-23T00:36:34.922Z,5.43
2023-01-23T00:37:26.002Z,5.41
2023-01-23T00:37:58.603Z,5.44
2023-01-23T00:38:31.110Z,5.36
2023-01-23T00:38:44.021Z,5.33
2023-01-23T00:39:18.217Z,5.32
2023-01-23T00:39:51.004Z,5.34
2023-01-23T00:40:42.494Z,5.29
2023-01-23T00:41:15.050Z,5.29
2023-01-23T00:41:48.147Z,5.31
2023-01-23T00:42:39.529Z,5.31
2023-01-23T00:43:33.205Z,5.45
2023-01-23T00:44:05.755Z,5.48
2023-01-23T00:44:38.388Z,5.48
2023-01-23T00:45:13.599Z,5.42
2023-01-23T00:45:46.127Z,5.35
2023-01-23T00:46:21.588Z,5.37
2023-01-23T00:46:54.096Z,5.35
2023-01-23T00:47:26.681Z,5.36
2023-01-23T00:48:18.288Z,5.50
2023-01-23T00:48:51.152Z,5.46
2023-01-23T00:49:24.741Z,5.34
2023-01-23T00:49:58.886Z,5.34
2023-01-23T00:50:31.436Z,5.48
2023-01-23T00:51:04.430Z,5.50
2023-01-23T00:51:36.863Z,5.58
2023-01-23T00:52:11.094Z,5.54
2023-01-23T00:52:43.898Z,5.60
2023-01-23T00:53:16.649Z,5.59
2023-01-23T00:53:49.201Z,5.50
2023-01-23T00:54:22.111Z,5.50
2023-01-23T00:54:54.951Z,5.51
2023-01-23T00:55:27.690Z,5.50
2023-01-23T00:56:00.448Z,5.44
2023-01-23T00:56:33.224Z,5.43
2023-01-23T00:57:05.986Z,5.40
2023-01-23T00:57:38.725Z,5.38
2023-01-23T00:58:11.499Z,5.34
2023-01-23T00:59:03.370Z,5.34
2023-01-23T00:59:36.712Z,5.36
2023-01-23T01:00:10.132Z,5.35
2023-01-23T01:00:42.904Z,5.36
2023-01-23T01:01:34.535Z,5.34
2023-01-23T01:02:26.319Z,5.34
2023-01-23T01:03:19.376Z,5.33
2023-01-23T01:04:10.842Z,5.32
2023-01-23T01:05:02.157Z,5.30
2023-01-23T01:05:35.323Z,5.29
2023-01-23T01:06:08.168Z,5.25
2023-01-23T01:06:40.885Z,5.22
2023-01-23T01:07:13.443Z,5.24
2023-01-23T01:07:46.160Z,5.27
2023-01-23T01:08:18.698Z,5.25
2023-01-23T01:08:51.271Z,5.29
2023-01-23T01:09:24.860Z,5.34
2023-01-23T01:09:57.421Z,5.30
2023-01-23T01:10:31.699Z,5.29
2023-01-23T01:11:04.651Z,5.33
2023-01-23T01:11:37.517Z,5.37
2023-01-23T01:12:10.051Z,5.34
2023-01-23T01:12:42.561Z,5.40
2023-01-23T01:13:17.608Z,5.47
2023-01-23T01:13:50.304Z,5.37
2023-01-23T01:14:22.878Z,5.42
2023-01-23T01:14:55.629Z,5.42
2023-01-23T01:15:28.652Z,5.33
2023-01-23T01:16:02.190Z,5.24
2023-01-23T01:16:34.480Z,5.29
2023-01-23T01:17:07.207Z,5.37
2023-01-23T01:17:58.713Z,5.38
2023-01-23T01:18:50.732Z,5.42
2023-01-23T01:19:41.794Z,5.38
2023-01-23T01:20:14.707Z,5.47
2023-01-23T01:20:47.490Z,5.38
2023-01-23T01:21:40.133Z,5.42
2023-01-23T01:22:13.366Z,5.43
2023-01-23T01:22:45.968Z,5.47
2023-01-23T01:23:37.334Z,5.50
2023-01-23T01:24:09.938Z,5.54
2023-01-23T01:24:42.487Z,5.55
2023-01-23T01:25:34.106Z,5.50
2023-01-23T01:26:06.690Z,5.45
2023-01-23T01:26:40.268Z,5.42
2023-01-23T01:27:12.828Z,5.54
2023-01-23T01:27:45.519Z,5.53
2023-01-23T01:28:36.941Z,5.48
2023-01-23T01:29:28.060Z,5.52
2023-01-23T01:30:00.802Z,5.50
2023-01-23T01:30:52.306Z,5.37
2023-01-23T01:31:43.464Z,5.38
2023-01-23T01:32:16.086Z,5.50
2023-01-23T01:32:48.774Z,5.44
2023-01-23T01:33:21.344Z,5.37
2023-01-23T01:33:55.484Z,5.29
2023-01-23T01:34:28.183Z,5.30
2023-01-23T01:35:00.760Z,5.29
2023-01-23T01:35:33.406Z,5.26
2023-01-23T01:36:13.123Z,5.40
2023-01-23T01:36:45.724Z,5.41
2023-01-23T01:37:18.266Z,5.47
2023-01-23T01:38:09.487Z,5.48
2023-01-23T01:38:42.103Z,5.48
2023-01-23T01:39:14.716Z,5.50
2023-01-23T01:40:07.417Z,5.49
2023-01-23T01:40:39.983Z,5.52
2023-01-23T01:41:13.279Z,5.55
2023-01-23T01:41:46.566Z,5.58
2023-01-23T01:42:19.091Z,5.56
2023-01-23T01:43:19.027Z,5.52
2023-01-23T01:44:18.559Z,5.41
2023-01-23T01:44:56.804Z,5.40
2023-01-23T01:45:47.865Z,5.49
2023-01-23T01:46:24.933Z,5.51
2023-01-23T01:46:57.458Z,5.54
2023-01-23T01:47:29.964Z,5.58
2023-01-23T01:48:34.060Z,5.59
2023-01-23T01:49:26.714Z,5.58
2023-01-23T01:50:17.782Z,5.61
2023-01-23T01:50:50.272Z,5.51
2023-01-23T01:51:31.169Z,5.62
2023-01-23T01:52:22.239Z,5.59
2023-01-23T01:52:54.812Z,5.72
2023-01-23T01:53:27.652Z,5.63
2023-01-23T01:54:03.165Z,5.61
2023-01-23T01:54:57.803Z,5.69
2023-01-23T01:55:30.326Z,5.63
2023-01-23T01:56:02.890Z,5.55
2023-01-23T01:56:40.323Z,5.43
2023-01-23T01:57:26.174Z,5.47
2023-01-23T01:57:58.944Z,5.57
2023-01-23T01:58:31.476Z,5.51
2023-01-23T01:59:04.026Z,5.41
2023-01-23T02:00:13.027Z,5.34
2023-01-23T02:00:47.536Z,5.35
2023-01-23T02:01:20.362Z,5.36
2023-01-23T02:02:12.075Z,5.43
2023-01-23T02:03:01.427Z,5.54
2023-01-23T02:03:34.001Z,5.55
2023-01-23T02:04:06.630Z,5.62
2023-01-23T02:04:41.026Z,5.63
2023-01-23T02:05:19.977Z,5.67
2023-01-23T02:05:52.717Z,5.65
2023-01-23T02:06:25.519Z,5.66
2023-01-23T02:06:58.070Z,5.67
2023-01-23T02:07:39.862Z,5.65
2023-01-23T02:08:30.791Z,5.58
2023-01-23T02:09:41.492Z,5.50
2023-01-23T02:10:34.736Z,5.53
2023-01-23T02:11:07.321Z,5.48
2023-01-23T02:11:58.055Z,5.45
2023-01-23T02:12:31.910Z,5.46
2023-01-23T02:13:36.035Z,5.46
2023-01-23T02:14:08.751Z,5.60
2023-01-23T02:15:00.128Z,5.61
2023-01-23T02:15:32.650Z,5.62
2023-01-23T02:16:09.626Z,5.61
2023-01-23T02:17:03.609Z,5.58
2023-01-23T02:17:36.958Z,5.69
2023-01-23T02:18:09.662Z,5.70
2023-01-23T02:18:45.676Z,5.66
2023-01-23T02:19:24.117Z,5.59
2023-01-23T02:20:02.432Z,5.57
2023-01-23T02:20:34.974Z,5.62
2023-01-23T02:21:09.544Z,5.55
2023-01-23T02:21:42.087Z,5.46
2023-01-23T02:22:39.962Z,5.51
2023-01-23T02:23:20.451Z,5.55
2023-01-23T02:24:08.222Z,5.56
2023-01-23T02:24:44.818Z,5.46
2023-01-23T02:25:17.364Z,5.48
2023-01-23T02:26:20.465Z,5.57
2023-01-23T02:27:11.314Z,5.59
2023-01-23T02:27:43.870Z,5.52
2023-01-23T02:28:16.551Z,5.64
2023-01-23T02:28:51.665Z,5.62
2023-01-23T02:29:44.052Z,5.53
2023-01-23T02:30:36.481Z,5.71
2023-01-23T02:31:09.342Z,5.71
2023-01-23T02:31:43.153Z,5.65
2023-01-23T02:32:15.745Z,5.70
2023-01-23T02:32:48.543Z,5.77
2023-01-23T02:33:24.962Z,5.82
2023-01-23T02:33:58.404Z,5.77
2023-01-23T02:34:49.422Z,5.79
2023-01-23T02:35:24.343Z,5.81
2023-01-23T02:35:57.329Z,5.78
2023-01-23T02:36:49.065Z,5.79
2023-01-23T02:37:21.819Z,5.82
2023-01-23T02:37:54.842Z,5.78
2023-01-23T02:38:31.691Z,5.71
2023-01-23T02:39:08.205Z,5.66
2023-01-23T02:39:40.867Z,5.70
2023-01-23T02:40:13.651Z,5.71
2023-01-23T02:40:46.170Z,5.63
2023-01-23T02:41:18.860Z,5.58
2023-01-23T02:41:51.617Z,5.58
2023-01-23T02:42:24.181Z,5.52
2023-01-23T02:42:56.852Z,5.51
2023-01-23T02:43:35.036Z,5.49
2023-01-23T02:44:09.750Z,5.42
2023-01-23T02:45:07.762Z,5.40
2023-01-23T02:45:40.345Z,5.49
2023-01-23T02:46:12.882Z,5.54
2023-01-23T02:47:07.931Z,5.56
2023-01-23T02:47:40.465Z,5.74
2023-01-23T02:48:13.075Z,5.73
2023-01-23T02:49:04.654Z,5.68
2023-01-23T02:49:37.342Z,5.64
2023-01-23T02:50:10.440Z,5.63
2023-01-23T02:50:46.419Z,5.52
2023-01-23T02:51:20.853Z,5.53
2023-01-23T02:51:55.239Z,5.63
2023-01-23T02:52:28.018Z,5.62
2023-01-23T02:53:27.726Z,5.65
2023-01-23T02:54:00.339Z,5.67
2023-01-23T02:54:33.018Z,5.66
2023-01-23T02:55:26.477Z,5.69
2023-01-23T02:56:00.730Z,5.68
2023-01-23T02:56:34.038Z,5.66
2023-01-23T02:57:06.783Z,5.66
2023-01-23T02:57:40.862Z,5.62
2023-01-23T02:58:32.133Z,5.50
2023-01-23T02:59:42.576Z,5.47
2023-01-23T03:00:36.048Z,5.45
2023-01-23T03:01:08.797Z,5.47
2023-01-23T03:01:41.283Z,5.48
2023-01-23T03:02:15.777Z,5.44
2023-01-23T03:02:49.567Z,5.44
2023-01-23T03:03:22.909Z,5.50
2023-01-23T03:04:03.658Z,5.55
2023-01-23T03:04:36.226Z,5.53
2023-01-23T03:05:08.892Z,5.58
2023-01-23T03:05:41.448Z,5.58
2023-01-23T03:06:14.811Z,5.56
2023-01-23T03:07:06.077Z,5.53
2023-01-23T03:07:39.530Z,5.57
2023-01-23T03:08:12.332Z,5.61
2023-01-23T03:08:47.919Z,5.60
2023-01-23T03:09:20.378Z,5.53
2023-01-23T03:09:52.965Z,5.65
2023-01-23T03:10:26.141Z,5.79
2023-01-23T03:10:58.873Z,5.67
2023-01-23T03:11:31.627Z,5.76
2023-01-23T03:12:23.245Z,5.73
2023-01-23T03:12:58.289Z,5.70
2023-01-23T03:13:31.513Z,5.68
2023-01-23T03:14:04.232Z,5.78
2023-01-23T03:14:37.092Z,5.77
2023-01-23T03:15:09.961Z,5.73
2023-01-23T03:15:42.577Z,5.67
2023-01-23T03:16:37.262Z,5.68
2023-01-23T03:17:07.833Z,5.59
2023-01-23T03:17:40.536Z,5.55
2023-01-23T03:18:13.672Z,5.72
2023-01-23T03:18:54.247Z,5.68
2023-01-23T03:19:38.991Z,5.70
2023-01-23T03:20:11.732Z,5.71
2023-01-23T03:20:44.432Z,5.67
2023-01-23T03:21:36.010Z,5.63
2023-01-23T03:22:08.561Z,5.59
2023-01-23T03:22:42.164Z,5.64
2023-01-23T03:23:33.735Z,5.61
2023-01-23T03:24:07.141Z,5.59
2023-01-23T03:24:39.760Z,5.54
2023-01-23T03:25:31.246Z,5.55
2023-01-23T03:26:03.803Z,5.50
2023-01-23T03:26:39.961Z,5.47
2023-01-23T03:27:13.234Z,5.43
2023-01-23T03:27:46.056Z,5.45
2023-01-23T03:28:55.666Z,5.44
2023-01-23T03:29:46.907Z,5.46
2023-01-23T03:30:22.096Z,5.42
2023-01-23T03:30:54.420Z,5.43
2023-01-23T03:31:07.324Z,5.47
2023-01-23T03:31:39.854Z,5.48
2023-01-23T03:32:12.773Z,5.50
2023-01-23T03:32:45.863Z,5.48
2023-01-23T03:33:39.251Z,5.49
2023-01-23T03:34:30.611Z,5.44
2023-01-23T03:35:22.109Z,5.44
2023-01-23T03:35:56.578Z,5.48
2023-01-23T03:36:29.125Z,5.51
2023-01-23T03:37:01.692Z,5.47
2023-01-23T03:37:53.440Z,5.45
2023-01-23T03:39:04.808Z,5.49
2023-01-23T03:40:14.944Z,5.51
2023-01-23T03:41:24.500Z,5.50
2023-01-23T03:42:16.185Z,5.51
2023-01-23T03:42:48.700Z,5.63
2023-01-23T03:43:21.287Z,5.63
2023-01-23T03:43:56.012Z,5.54
2023-01-23T03:44:28.565Z,5.53
2023-01-23T03:45:20.177Z,5.54
2023-01-23T03:45:52.917Z,5.57
2023-01-23T03:46:25.717Z,5.55
2023-01-23T03:47:00.062Z,5.65
2023-01-23T03:47:32.675Z,5.61
2023-01-23T03:48:24.131Z,5.56
2023-01-23T03:48:56.717Z,5.55
2023-01-23T03:49:29.380Z,5.56
2023-01-23T03:50:37.317Z,5.52
2023-01-23T03:51:09.878Z,5.53
2023-01-23T03:51:42.753Z,5.57
2023-01-23T03:52:15.265Z,5.59
2023-01-23T03:52:47.820Z,5.62
2023-01-23T03:53:38.866Z,5.53
2023-01-23T03:54:29.934Z,5.59
2023-01-23T03:55:02.535Z,5.58
2023-01-23T03:55:35.093Z,5.55
2023-01-23T03:56:07.790Z,5.53
2023-01-23T03:56:44.277Z,5.53
2023-01-23T03:57:17.054Z,5.52
2023-01-23T03:57:50.359Z,5.55
2023-01-23T03:58:22.914Z,5.64
2023-01-23T03:58:55.843Z,5.72
2023-01-23T03:59:28.472Z,5.76
2023-01-23T04:00:01.234Z,5.73
2023-01-23T04:00:33.985Z,5.77
2023-01-23T04:01:07.267Z,5.88
2023-01-23T04:01:39.870Z,5.80
2023-01-23T04:02:12.644Z,5.87
2023-01-23T04:02:45.351Z,5.78
2023-01-23T04:03:18.167Z,5.68
2023-01-23T04:03:50.921Z,5.77
2023-01-23T04:04:23.469Z,5.66
2023-01-23T04:05:14.686Z,5.66
2023-01-23T04:06:06.037Z,5.59
2023-01-23T04:06:38.681Z,5.57
2023-01-23T04:07:29.487Z,5.58
2023-01-23T04:08:02.289Z,5.60
2023-01-23T04:08:34.815Z,5.58
2023-01-23T04:09:27.983Z,5.59
2023-01-23T04:10:28.861Z,5.58
2023-01-23T04:11:08.501Z,5.76
2023-01-23T04:11:41.008Z,5.80
2023-01-23T04:12:14.812Z,5.84
2023-01-23T04:12:47.349Z,5.71
2023-01-23T04:13:21.503Z,5.62
2023-01-23T04:13:54.624Z,5.57
2023-01-23T04:14:27.302Z,5.58
2023-01-23T04:14:59.873Z,5.58
2023-01-23T04:15:33.330Z,5.58
2023-01-23T04:16:06.343Z,5.62
2023-01-23T04:16:40.164Z,5.62
2023-01-23T04:17:12.695Z,5.63
2023-01-23T04:18:04.517Z,5.64
2023-01-23T04:18:56.600Z,5.65
2023-01-23T04:19:29.142Z,5.62
2023-01-23T04:20:01.688Z,5.59
2023-01-23T04:20:34.215Z,5.53
2023-01-23T04:21:06.774Z,5.51
2023-01-23T04:21:39.349Z,5.53
2023-01-23T04:22:11.873Z,5.53
2023-01-23T04:22:44.602Z,5.52
2023-01-23T04:23:46.230Z,5.55
2023-01-23T04:24:18.768Z,5.64
2023-01-23T04:24:51.953Z,5.62
2023-01-23T04:25:24.699Z,5.68
2023-01-23T04:26:15.647Z,5.77
2023-01-23T04:26:48.374Z,5.68
2023-01-23T04:27:21.224Z,5.68
2023-01-23T04:27:54.710Z,5.61
2023-01-23T04:28:27.375Z,5.59
2023-01-23T04:28:59.898Z,5.62
2023-01-23T04:29:33.276Z,5.65
2023-01-23T04:30:06.049Z,5.63
2023-01-23T04:30:57.648Z,5.66
2023-01-23T04:31:29.685Z,5.60
2023-01-23T04:32:02.321Z,5.66
2023-01-23T04:32:54.093Z,5.66
2023-01-23T04:33:44.976Z,5.77
2023-01-23T04:34:17.527Z,5.70
2023-01-23T04:35:08.776Z,5.69
2023-01-23T04:36:01.287Z,5.76
2023-01-23T04:36:35.499Z,5.79
2023-01-23T04:37:09.970Z,5.79
2023-01-23T04:37:43.312Z,5.86
2023-01-23T04:38:35.014Z,5.83
2023-01-23T04:39:08.086Z,5.88
2023-01-23T04:39:59.540Z,5.85
2023-01-23T04:40:51.168Z,5.75
2023-01-23T04:41:24.372Z,5.66
2023-01-23T04:42:23.295Z,5.68
2023-01-23T04:42:55.863Z,5.80
2023-01-23T04:43:28.498Z,5.83
2023-01-23T04:44:19.919Z,5.87
2023-01-23T04:44:52.691Z,5.84
2023-01-23T04:45:25.246Z,5.88
2023-01-23T04:45:57.929Z,5.90
2023-01-23T04:46:30.385Z,5.99
2023-01-23T04:47:02.967Z,5.94
2023-01-23T04:47:35.553Z,5.87
2023-01-23T04:48:08.125Z,5.81
2023-01-23T04:48:40.976Z,5.78
2023-01-23T04:49:13.646Z,5.76
2023-01-23T04:49:46.233Z,5.70
2023-01-23T04:50:38.232Z,5.69
2023-01-23T04:51:29.069Z,5.68
2023-01-23T04:52:20.459Z,5.69
2023-01-23T04:52:53.292Z,5.76
2023-01-23T04:53:25.924Z,5.74
2023-01-23T04:54:17.727Z,5.69
2023-01-23T04:54:50.383Z,5.75
2023-01-23T04:55:23.545Z,5.71
2023-01-23T04:56:16.436Z,5.77
2023-01-23T04:56:49.039Z,5.76
2023-01-23T04:57:40.165Z,5.84
2023-01-23T04:58:31.354Z,5.78
2023-01-23T04:59:04.044Z,5.71
2023-01-23T04:59:36.600Z,5.71
2023-01-23T05:00:09.681Z,5.73
2023-01-23T05:00:44.200Z,5.67
2023-01-23T05:01:16.793Z,5.68
2023-01-23T05:01:49.342Z,5.67
2023-01-23T05:02:22.153Z,5.67
2023-01-23T05:02:54.584Z,5.63
2023-01-23T05:03:27.181Z,5.65
2023-01-23T05:03:59.918Z,5.78
2023-01-23T05:04:32.450Z,5.74
2023-01-23T05:05:05.815Z,5.81
2023-01-23T05:05:38.516Z,5.73
2023-01-23T05:06:11.113Z,5.79
2023-01-23T05:06:43.668Z,5.83
2023-01-23T05:07:16.259Z,5.77
2023-01-23T05:07:48.963Z,5.72
2023-01-23T05:08:23.127Z,5.88
2023-01-23T05:08:55.674Z,5.83
2023-01-23T05:09:46.943Z,5.81
2023-01-23T05:10:19.756Z,5.81
2023-01-23T05:10:52.108Z,5.89
2023-01-23T05:11:43.412Z,5.94
2023-01-23T05:12:15.982Z,5.97
2023-01-23T05:12:48.552Z,5.95
2023-01-23T05:13:21.093Z,6.02
2023-01-23T05:14:12.249Z,6.02
2023-01-23T05:14:44.803Z,5.89
2023-01-23T05:15:17.413Z,5.81
2023-01-23T05:15:49.983Z,5.88
2023-01-23T05:16:22.709Z,5.81
2023-01-23T05:17:14.186Z,5.82
2023-01-23T05:17:47.060Z,5.77
2023-01-23T05:18:38.134Z,5.78
2023-01-23T05:19:29.513Z,5.90
2023-01-23T05:20:20.929Z,6.09
2023-01-23T05:21:11.755Z,6.04
2023-01-23T05:22:02.938Z,6.01
2023-01-23T05:22:35.550Z,6.11
2023-01-23T05:23:28.791Z,5.92
2023-01-23T05:24:24.123Z,5.93
2023-01-23T05:25:15.320Z,5.99
2023-01-23T05:25:49.777Z,6.01
2023-01-23T05:26:23.431Z,5.88
2023-01-23T05:26:56.021Z,5.91
2023-01-23T05:27:47.111Z,5.90
2023-01-23T05:28:38.257Z,5.87
2023-01-23T05:29:11.008Z,5.80
2023-01-23T05:29:43.744Z,5.81
2023-01-23T05:30:17.441Z,5.79
2023-01-23T05:30:50.014Z,5.82
2023-01-23T05:31:41.118Z,5.89
2023-01-23T05:32:13.624Z,5.83
2023-01-23T05:32:46.179Z,5.88
2023-01-23T05:33:18.828Z,5.80
2023-01-23T05:33:51.387Z,5.80
2023-01-23T05:34:42.989Z,5.85
2023-01-23T05:35:15.542Z,5.84
2023-01-23T05:35:48.124Z,5.83
2023-01-23T05:36:39.785Z,5.81
2023-01-23T05:37:12.345Z,5.79
2023-01-23T05:37:49.432Z,5.84
2023-01-23T05:38:21.955Z,5.81
2023-01-23T05:38:57.174Z,5.77
2023-01-23T05:39:32.656Z,5.79
2023-01-23T05:40:06.668Z,5.77
2023-01-23T05:40:39.221Z,5.73
2023-01-23T05:41:11.774Z,5.75
2023-01-23T05:41:44.375Z,5.77
2023-01-23T05:42:16.895Z,5.88
2023-01-23T05:42:49.568Z,5.83
2023-01-23T05:43:40.638Z,5.87
2023-01-23T05:44:13.141Z,6.09
2023-01-23T05:44:45.705Z,6.11
2023-01-23T05:45:18.290Z,6.08
2023-01-23T05:45:52.251Z,6.06
2023-01-23T05:46:24.746Z,6.00
2023-01-23T05:46:57.302Z,5.93
2023-01-23T05:47:31.476Z,5.94
2023-01-23T05:48:22.813Z,6.00
2023-01-23T05:48:55.539Z,6.08
2023-01-23T05:49:48.399Z,6.14
2023-01-23T05:50:23.763Z,6.13
2023-01-23T05:51:14.718Z,6.08
2023-01-23T05:52:06.245Z,6.15
2023-01-23T05:52:59.496Z,5.98
2023-01-23T05:53:33.201Z,5.94
2023-01-23T05:54:06.719Z,6.03
2023-01-23T05:54:57.955Z,6.06
2023-01-23T05:55:49.260Z,5.89
2023-01-23T05:56:21.870Z,5.79
2023-01-23T05:57:32.257Z,5.81
2023-01-23T05:58:05.356Z,5.84
2023-01-23T05:58:38.083Z,5.82
2023-01-23T05:59:10.880Z,5.93
2023-01-23T06:00:02.343Z,5.82
2023-01-23T06:00:35.161Z,5.85
2023-01-23T06:01:07.994Z,5.91
2023-01-23T06:01:40.729Z,5.92
2023-01-23T06:02:13.555Z,5.92
2023-01-23T06:03:04.796Z,6.00
2023-01-23T06:03:37.577Z,6.08
2023-01-23T06:04:10.097Z,6.01
2023-01-23T06:04:42.687Z,6.10
2023-01-23T06:05:15.294Z,6.08
2023-01-23T06:05:48.497Z,6.11
2023-01-23T06:06:21.355Z,6.15
2023-01-23T06:06:53.915Z,6.13
2023-01-23T06:07:26.637Z,6.10
2023-01-23T06:08:18.009Z,6.21
2023-01-23T06:08:52.515Z,6.06
2023-01-23T06:09:26.178Z,5.92
2023-01-23T06:10:18.525Z,5.84
2023-01-23T06:11:09.421Z,5.79
2023-01-23T06:11:42.176Z,5.78
2023-01-23T06:12:16.914Z,5.86
2023-01-23T06:12:49.656Z,5.90
2023-01-23T06:13:22.400Z,5.82
2023-01-23T06:13:55.123Z,5.79
2023-01-23T06:14:29.287Z,5.88
2023-01-23T06:15:01.802Z,5.82
2023-01-23T06:15:34.621Z,5.79
2023-01-23T06:16:10.377Z,5.97
2023-01-23T06:16:39.911Z,5.92
2023-01-23T06:17:12.493Z,5.87
2023-01-23T06:18:03.717Z,5.85
2023-01-23T06:18:55.292Z,5.82
2023-01-23T06:19:27.968Z,5.91
2023-01-23T06:20:00.515Z,5.84
2023-01-23T06:20:57.829Z,5.83
2023-01-23T06:21:30.378Z,5.82
2023-01-23T06:22:04.863Z,5.82
2023-01-23T06:22:37.400Z,5.80
2023-01-23T06:23:10.009Z,5.74
2023-01-23T06:23:43.284Z,5.72
2023-01-23T06:24:15.865Z,5.70
2023-01-23T06:24:48.419Z,5.72
2023-01-23T06:25:40.263Z,5.72
2023-01-23T06:26:13.083Z,5.74
2023-01-23T06:26:45.588Z,5.74
2023-01-23T06:27:39.771Z,5.70
2023-01-23T06:28:12.511Z,5.73
2023-01-23T06:28:45.042Z,5.77
2023-01-23T06:29:36.525Z,5.76
2023-01-23T06:30:10.923Z,5.76
2023-01-23T06:30:43.444Z,5.79
2023-01-23T06:31:16.170Z,5.83
2023-01-23T06:32:07.452Z,5.82
2023-01-23T06:32:40.031Z,5.80
2023-01-23T06:33:12.556Z,5.79
2023-01-23T06:34:03.691Z,5.76
2023-01-23T06:34:36.698Z,5.86
2023-01-23T06:35:27.997Z,5.87
2023-01-23T06:36:00.968Z,5.90
2023-01-23T06:36:34.145Z,5.88
2023-01-23T06:37:25.501Z,5.79
2023-01-23T06:37:58.206Z,5.77
2023-01-23T06:38:30.744Z,5.74
2023-01-23T06:39:03.364Z,5.74
2023-01-23T06:39:35.897Z,5.73
2023-01-23T06:40:13.159Z,5.70
2023-01-23T06:40:45.643Z,5.71
2023-01-23T06:41:19.838Z,5.73
2023-01-23T06:41:50.723Z,5.73
2023-01-23T06:42:23.262Z,5.76
2023-01-23T06:42:56.624Z,5.76
2023-01-23T06:43:47.491Z,5.79
2023-01-23T06:44:20.336Z,5.84
2023-01-23T06:44:52.890Z,5.85
2023-01-23T06:45:25.445Z,5.87
2023-01-23T06:45:58.179Z,5.86
2023-01-23T06:46:31.644Z,5.94
2023-01-23T06:47:04.327Z,6.01
2023-01-23T06:47:37.323Z,5.98
2023-01-23T06:48:09.866Z,5.89
2023-01-23T06:49:06.440Z,5.85
2023-01-23T06:49:38.829Z,5.81
2023-01-23T06:50:11.550Z,5.81
2023-01-23T06:50:44.088Z,5.80
2023-01-23T06:51:18.126Z,5.82
2023-01-23T06:51:50.766Z,5.86
2023-01-23T06:52:24.415Z,5.87
2023-01-23T06:52:56.948Z,5.95
2023-01-23T06:53:29.826Z,5.96
2023-01-23T06:54:02.698Z,5.93
2023-01-23T06:54:35.350Z,5.97
2023-01-23T06:55:08.277Z,5.89
2023-01-23T06:55:40.980Z,5.92
2023-01-23T06:56:13.755Z,5.93
2023-01-23T06:56:46.492Z,6.02
2023-01-23T06:57:19.241Z,5.97
2023-01-23T06:57:52.433Z,6.07
2023-01-23T06:58:25.095Z,6.09
2023-01-23T06:58:57.929Z,6.03
2023-01-23T06:59:30.548Z,5.94
2023-01-23T07:00:03.692Z,5.93
2023-01-23T07:00:36.268Z,5.98
2023-01-23T07:01:12.007Z,5.92
2023-01-23T07:01:44.667Z,5.93
2023-01-23T07:02:17.156Z,6.04
2023-01-23T07:03:09.207Z,5.98
2023-01-23T07:03:42.472Z,5.96
2023-01-23T07:04:15.041Z,5.95
2023-01-23T07:04:47.560Z,5.97
2023-01-23T07:05:20.164Z,5.98
2023-01-23T07:05:52.966Z,5.94
2023-01-23T07:06:25.505Z,5.89
2023-01-23T07:06:58.068Z,5.89
2023-01-23T07:07:30.845Z,5.88
2023-01-23T07:08:04.963Z,5.89
2023-01-23T07:08:37.361Z,5.94
2023-01-23T07:09:11.813Z,5.94
2023-01-23T07:10:03.262Z,5.97
2023-01-23T07:10:54.287Z,5.99
2023-01-23T07:11:27.267Z,6.07
2023-01-23T07:12:18.308Z,6.02
2023-01-23T07:13:11.194Z,6.02
2023-01-23T07:13:44.109Z,6.12
2023-01-23T07:14:16.824Z,6.13
2023-01-23T07:15:08.788Z,6.08
2023-01-23T07:15:41.568Z,6.00
2023-01-23T07:16:14.352Z,6.02
2023-01-23T07:17:06.061Z,6.04
2023-01-23T07:17:38.810Z,6.01
2023-01-23T07:18:11.528Z,5.97
2023-01-23T07:18:44.422Z,5.97
2023-01-23T07:19:16.971Z,6.00
2023-01-23T07:20:09.111Z,6.01
2023-01-23T07:20:44.704Z,6.04
2023-01-23T07:21:17.464Z,6.05
2023-01-23T07:21:50.199Z,6.03
2023-01-23T07:22:23.413Z,6.08
2023-01-23T07:22:56.041Z,6.06
2023-01-23T07:23:51.768Z,6.05
2023-01-23T07:24:24.535Z,6.07
2023-01-23T07:24:57.618Z,6.09
2023-01-23T07:25:30.554Z,6.11
2023-01-23T07:26:22.219Z,6.07
2023-01-23T07:26:54.955Z,6.02
2023-01-23T07:27:46.211Z,6.02
2023-01-23T07:28:20.463Z,6.01
2023-01-23T07:28:53.004Z,6.05
2023-01-23T07:29:25.580Z,6.08
2023-01-23T07:29:58.100Z,6.11
2023-01-23T07:30:30.710Z,6.12
2023-01-23T07:31:03.526Z,6.14
2023-01-23T07:31:36.331Z,6.14
2023-01-23T07:32:10.913Z,6.15
2023-01-23T07:32:41.488Z,6.15
2023-01-23T07:33:14.052Z,6.19
2023-01-23T07:33:47.215Z,6.15
2023-01-23T07:34:19.977Z,6.14
2023-01-23T07:34:53.219Z,6.14
2023-01-23T07:35:26.043Z,6.16
2023-01-23T07:35:58.765Z,6.17
2023-01-23T07:36:31.512Z,6.17
2023-01-23T07:37:04.244Z,6.14
2023-01-23T07:37:36.991Z,6.19
2023-01-23T07:38:10.048Z,6.20
2023-01-23T07:38:42.867Z,6.17
2023-01-23T07:39:16.231Z,6.19
2023-01-23T07:39:50.553Z,6.21
2023-01-23T07:40:23.433Z,6.23
2023-01-23T07:40:58.033Z,6.26
2023-01-23T07:41:30.543Z,6.31
2023-01-23T07:42:03.137Z,6.27
2023-01-23T07:42:35.703Z,6.28
2023-01-23T07:43:27.274Z,6.30
2023-01-23T07:43:59.805Z,6.31
2023-01-23T07:44:32.397Z,6.29
2023-01-23T07:45:07.962Z,6.30
2023-01-23T07:45:40.753Z,6.33
2023-01-23T07:46:13.331Z,6.30
2023-01-23T07:47:04.887Z,6.33
2023-01-23T07:47:39.542Z,6.35
2023-01-23T07:48:30.720Z,6.32
2023-01-23T07:49:38.440Z,6.35
2023-01-23T07:50:12.020Z,6.31
2023-01-23T07:50:46.499Z,6.31
2023-01-23T07:51:19.193Z,6.31
2023-01-23T07:52:10.209Z,6.33
2023-01-23T07:52:43.023Z,6.33
2023-01-23T07:53:34.388Z,6.40
2023-01-23T07:54:07.432Z,6.48
2023-01-23T07:54:58.930Z,6.54
2023-01-23T07:55:31.839Z,6.56
2023-01-23T07:56:06.972Z,6.57
2023-01-23T07:56:57.965Z,6.54
2023-01-23T07:57:49.772Z,6.58
2023-01-23T07:58:23.024Z,6.59
2023-01-23T07:58:57.487Z,6.55
2023-01-23T07:59:28.431Z,6.54
2023-01-23T08:00:01.159Z,6.59
2023-01-23T08:00:33.997Z,6.64
2023-01-23T08:01:29.733Z,6.61
2023-01-23T08:02:02.508Z,6.62
2023-01-23T08:02:35.256Z,6.61
2023-01-23T08:03:08.008Z,6.62
2023-01-23T08:03:42.746Z,6.62
2023-01-23T08:04:15.468Z,6.60
2023-01-23T08:04:48.003Z,6.64
2023-01-23T08:05:38.961Z,6.61
2023-01-23T08:06:11.518Z,6.54
2023-01-23T08:06:44.079Z,6.55
2023-01-23T08:07:16.891Z,6.57
2023-01-23T08:08:13.458Z,6.59
2023-01-23T08:09:00.504Z,6.61
2023-01-23T08:09:33.262Z,6.61
2023-01-23T08:10:07.077Z,6.62
2023-01-23T08:10:39.831Z,6.60
2023-01-23T08:11:14.770Z,6.64
2023-01-23T08:12:06.502Z,6.64
2023-01-23T08:12:40.554Z,6.58
2023-01-23T08:13:13.271Z,6.61
2023-01-23T08:14:04.657Z,6.65
2023-01-23T08:14:37.186Z,6.65
2023-01-23T08:15:10.003Z,6.66
2023-01-23T08:16:11.468Z,6.71
2023-01-23T08:16:42.343Z,6.73
2023-01-23T08:17:16.833Z,6.65
2023-01-23T08:17:49.374Z,6.70
2023-01-23T08:18:21.992Z,6.68
2023-01-23T08:18:54.808Z,6.74
2023-01-23T08:19:27.869Z,6.76
2023-01-23T08:20:00.657Z,6.79
2023-01-23T08:20:57.511Z,6.86
2023-01-23T08:21:30.299Z,6.80
2023-01-23T08:22:21.799Z,6.80
2023-01-23T08:22:54.413Z,6.82
2023-01-23T08:23:27.953Z,6.82
2023-01-23T08:24:04.836Z,6.80
2023-01-23T08:24:37.700Z,6.86